sensor_id;sensor_type;location;lat;lon;timestamp;P1;durP1;ratioP1;P2;durP2;ratioP2
10452;SDS011;5274;51.992;8.518;2023-05-07T00:00:18;48.25;;;44.55;;
10452;SDS011;5274;51.992;8.518;2023-05-07T00:02:44;46.45;;;42.65;;
10452;SDS011;5274;51.992;8.518;2023-05-07T00:05:11;47.83;;;44.00;;
10452;SDS011;5274;51.992;8.518;2023-05-07T00:07:37;48.20;;;44.28;;
10452;SDS011;5274;51.992;8.518;2023-05-07T00:10:03;47.67;;;43.95;;
10452;SDS011;5274;51.992;8.518;2023-05-07T00:12:31;45.17;;;41.78;;
10452;SDS011;5274;51.992;8.518;2023-05-07T00:14:58;47.08;;;43.15;;
10452;SDS011;5274;51.992;8.518;2023-05-07T00:17:24;45.78;;;42.25;;
10452;SDS011;5274;51.992;8.518;2023-05-07T00:19:50;47.70;;;43.80;;
10452;SDS011;5274;51.992;8.518;2023-05-07T00:22:16;48.70;;;45.05;;
10452;SDS011;5274;51.992;8.518;2023-05-07T00:24:42;46.13;;;42.78;;
10452;SDS011;5274;51.992;8.518;2023-05-07T00:27:08;46.08;;;42.45;;
10452;SDS011;5274;51.992;8.518;2023-05-07T00:29:34;45.60;;;42.10;;
10452;SDS011;5274;51.992;8.518;2023-05-07T00:32:01;47.28;;;43.78;;
10452;SDS011;5274;51.992;8.518;2023-05-07T00:34:27;47.75;;;44.05;;
10452;SDS011;5274;51.992;8.518;2023-05-07T00:36:53;45.95;;;42.47;;
10452;SDS011;5274;51.992;8.518;2023-05-07T00:39:19;46.85;;;43.55;;
10452;SDS011;5274;51.992;8.518;2023-05-07T00:41:45;48.38;;;44.72;;
10452;SDS011;5274;51.992;8.518;2023-05-07T00:44:13;48.30;;;44.80;;
10452;SDS011;5274;51.992;8.518;2023-05-07T00:46:39;47.28;;;43.60;;
10452;SDS011;5274;51.992;8.518;2023-05-07T00:49:05;45.00;;;41.38;;
10452;SDS011;5274;51.992;8.518;2023-05-07T00:51:32;46.15;;;42.58;;
10452;SDS011;5274;51.992;8.518;2023-05-07T00:53:59;49.70;;;46.17;;
10452;SDS011;5274;51.992;8.518;2023-05-07T00:56:25;50.65;;;47.05;;
10452;SDS011;5274;51.992;8.518;2023-05-07T00:58:52;48.45;;;44.63;;
10452;SDS011;5274;51.992;8.518;2023-05-07T01:01:18;47.55;;;43.95;;
10452;SDS011;5274;51.992;8.518;2023-05-07T01:03:44;45.75;;;42.30;;
10452;SDS011;5274;51.992;8.518;2023-05-07T01:06:10;46.53;;;42.97;;
10452;SDS011;5274;51.992;8.518;2023-05-07T01:08:37;46.88;;;43.35;;
10452;SDS011;5274;51.992;8.518;2023-05-07T01:11:04;47.47;;;43.83;;
10452;SDS011;5274;51.992;8.518;2023-05-07T01:13:30;46.40;;;42.83;;
10452;SDS011;5274;51.992;8.518;2023-05-07T01:15:56;47.10;;;43.58;;
10452;SDS011;5274;51.992;8.518;2023-05-07T01:18:22;47.97;;;44.17;;
10452;SDS011;5274;51.992;8.518;2023-05-07T01:20:48;48.63;;;44.90;;
10452;SDS011;5274;51.992;8.518;2023-05-07T01:23:14;50.40;;;46.60;;
10452;SDS011;5274;51.992;8.518;2023-05-07T01:25:41;49.53;;;45.88;;
10452;SDS011;5274;51.992;8.518;2023-05-07T01:28:07;49.78;;;45.90;;
10452;SDS011;5274;51.992;8.518;2023-05-07T01:30:32;46.80;;;43.25;;
10452;SDS011;5274;51.992;8.518;2023-05-07T01:33:01;44.72;;;41.05;;
10452;SDS011;5274;51.992;8.518;2023-05-07T01:35:29;46.08;;;42.40;;
10452;SDS011;5274;51.992;8.518;2023-05-07T01:37:56;47.75;;;44.00;;
10452;SDS011;5274;51.992;8.518;2023-05-07T01:40:22;48.13;;;44.38;;
10452;SDS011;5274;51.992;8.518;2023-05-07T01:42:48;47.97;;;44.17;;
10452;SDS011;5274;51.992;8.518;2023-05-07T01:45:14;51.45;;;47.15;;
10452;SDS011;5274;51.992;8.518;2023-05-07T01:47:40;50.25;;;46.10;;
10452;SDS011;5274;51.992;8.518;2023-05-07T01:50:06;49.55;;;45.58;;
10452;SDS011;5274;51.992;8.518;2023-05-07T01:52:36;48.13;;;44.30;;
10452;SDS011;5274;51.992;8.518;2023-05-07T01:55:03;48.50;;;44.55;;
10452;SDS011;5274;51.992;8.518;2023-05-07T01:57:29;48.78;;;44.67;;
10452;SDS011;5274;51.992;8.518;2023-05-07T01:59:55;46.45;;;42.30;;
10452;SDS011;5274;51.992;8.518;2023-05-07T02:02:21;46.05;;;42.25;;
10452;SDS011;5274;51.992;8.518;2023-05-07T02:04:47;46.95;;;43.25;;
10452;SDS011;5274;51.992;8.518;2023-05-07T02:07:13;47.60;;;43.40;;
10452;SDS011;5274;51.992;8.518;2023-05-07T02:09:39;45.65;;;41.95;;
10452;SDS011;5274;51.992;8.518;2023-05-07T02:12:05;46.00;;;42.13;;
10452;SDS011;5274;51.992;8.518;2023-05-07T02:14:31;43.65;;;39.95;;
10452;SDS011;5274;51.992;8.518;2023-05-07T02:16:57;45.92;;;42.00;;
10452;SDS011;5274;51.992;8.518;2023-05-07T02:19:23;44.92;;;41.17;;
10452;SDS011;5274;51.992;8.518;2023-05-07T02:21:48;48.15;;;44.17;;
10452;SDS011;5274;51.992;8.518;2023-05-07T02:24:15;47.78;;;43.42;;
10452;SDS011;5274;51.992;8.518;2023-05-07T02:26:41;47.78;;;43.38;;
10452;SDS011;5274;51.992;8.518;2023-05-07T02:29:07;46.03;;;41.92;;
10452;SDS011;5274;51.992;8.518;2023-05-07T02:31:33;45.80;;;41.78;;
10452;SDS011;5274;51.992;8.518;2023-05-07T02:33:59;46.58;;;42.45;;
10452;SDS011;5274;51.992;8.518;2023-05-07T02:36:25;44.15;;;40.25;;
10452;SDS011;5274;51.992;8.518;2023-05-07T02:38:51;43.80;;;39.97;;
10452;SDS011;5274;51.992;8.518;2023-05-07T02:41:17;44.78;;;40.50;;
10452;SDS011;5274;51.992;8.518;2023-05-07T02:43:43;45.72;;;41.83;;
10452;SDS011;5274;51.992;8.518;2023-05-07T02:46:09;46.90;;;42.88;;
10452;SDS011;5274;51.992;8.518;2023-05-07T02:48:35;49.95;;;45.50;;
10452;SDS011;5274;51.992;8.518;2023-05-07T02:51:01;48.63;;;44.50;;
10452;SDS011;5274;51.992;8.518;2023-05-07T02:53:27;48.22;;;44.38;;
10452;SDS011;5274;51.992;8.518;2023-05-07T02:55:55;47.47;;;43.05;;
10452;SDS011;5274;51.992;8.518;2023-05-07T02:58:21;45.15;;;41.17;;
10452;SDS011;5274;51.992;8.518;2023-05-07T03:00:47;45.60;;;41.60;;
10452;SDS011;5274;51.992;8.518;2023-05-07T03:03:13;45.92;;;42.08;;
10452;SDS011;5274;51.992;8.518;2023-05-07T03:05:39;47.03;;;42.95;;
10452;SDS011;5274;51.992;8.518;2023-05-07T03:08:05;48.00;;;43.80;;
10452;SDS011;5274;51.992;8.518;2023-05-07T03:10:31;48.42;;;44.28;;
10452;SDS011;5274;51.992;8.518;2023-05-07T03:12:57;47.17;;;43.17;;
10452;SDS011;5274;51.992;8.518;2023-05-07T03:15:23;50.17;;;45.45;;
10452;SDS011;5274;51.992;8.518;2023-05-07T03:17:49;50.75;;;46.47;;
10452;SDS011;5274;51.992;8.518;2023-05-07T03:20:15;50.10;;;45.40;;
10452;SDS011;5274;51.992;8.518;2023-05-07T03:22:41;48.85;;;44.85;;
10452;SDS011;5274;51.992;8.518;2023-05-07T03:25:07;47.85;;;43.80;;
10452;SDS011;5274;51.992;8.518;2023-05-07T03:27:33;48.47;;;44.08;;
10452;SDS011;5274;51.992;8.518;2023-05-07T03:29:59;48.88;;;44.70;;
10452;SDS011;5274;51.992;8.518;2023-05-07T03:32:25;48.75;;;44.40;;
10452;SDS011;5274;51.992;8.518;2023-05-07T03:34:51;47.72;;;43.30;;
10452;SDS011;5274;51.992;8.518;2023-05-07T03:37:17;47.33;;;42.95;;
10452;SDS011;5274;51.992;8.518;2023-05-07T03:39:43;48.92;;;44.83;;
10452;SDS011;5274;51.992;8.518;2023-05-07T03:42:09;47.55;;;43.05;;
10452;SDS011;5274;51.992;8.518;2023-05-07T03:44:35;47.67;;;43.58;;
10452;SDS011;5274;51.992;8.518;2023-05-07T03:47:01;48.72;;;44.53;;
10452;SDS011;5274;51.992;8.518;2023-05-07T03:49:27;50.63;;;46.53;;
10452;SDS011;5274;51.992;8.518;2023-05-07T03:51:53;49.20;;;44.90;;
10452;SDS011;5274;51.992;8.518;2023-05-07T03:54:19;49.55;;;45.25;;
10452;SDS011;5274;51.992;8.518;2023-05-07T03:56:45;47.70;;;43.63;;
10452;SDS011;5274;51.992;8.518;2023-05-07T03:59:11;48.22;;;44.22;;
10452;SDS011;5274;51.992;8.518;2023-05-07T04:01:38;49.22;;;45.03;;
10452;SDS011;5274;51.992;8.518;2023-05-07T04:04:04;59.28;;;54.17;;
10452;SDS011;5274;51.992;8.518;2023-05-07T04:06:30;57.33;;;52.25;;
10452;SDS011;5274;51.992;8.518;2023-05-07T04:08:56;58.60;;;53.47;;
10452;SDS011;5274;51.992;8.518;2023-05-07T04:11:22;58.97;;;53.58;;
10452;SDS011;5274;51.992;8.518;2023-05-07T04:13:48;59.47;;;54.10;;
10452;SDS011;5274;51.992;8.518;2023-05-07T04:16:14;59.28;;;54.05;;
10452;SDS011;5274;51.992;8.518;2023-05-07T04:18:40;57.20;;;52.50;;
10452;SDS011;5274;51.992;8.518;2023-05-07T04:21:13;58.88;;;53.63;;
10452;SDS011;5274;51.992;8.518;2023-05-07T04:23:39;59.42;;;54.13;;
10452;SDS011;5274;51.992;8.518;2023-05-07T04:26:05;58.85;;;53.95;;
10452;SDS011;5274;51.992;8.518;2023-05-07T04:28:31;60.95;;;55.70;;
10452;SDS011;5274;51.992;8.518;2023-05-07T04:30:57;59.85;;;54.60;;
10452;SDS011;5274;51.992;8.518;2023-05-07T04:33:23;60.13;;;54.67;;
10452;SDS011;5274;51.992;8.518;2023-05-07T04:35:49;59.65;;;54.35;;
10452;SDS011;5274;51.992;8.518;2023-05-07T04:38:15;60.90;;;55.72;;
10452;SDS011;5274;51.992;8.518;2023-05-07T04:40:43;61.85;;;56.75;;
10452;SDS011;5274;51.992;8.518;2023-05-07T04:43:09;62.80;;;57.38;;
10452;SDS011;5274;51.992;8.518;2023-05-07T04:45:35;63.05;;;57.92;;
10452;SDS011;5274;51.992;8.518;2023-05-07T04:48:01;60.15;;;55.00;;
10452;SDS011;5274;51.992;8.518;2023-05-07T04:50:27;58.17;;;53.20;;
10452;SDS011;5274;51.992;8.518;2023-05-07T04:52:53;57.70;;;52.83;;
10452;SDS011;5274;51.992;8.518;2023-05-07T04:55:19;57.75;;;52.65;;
10452;SDS011;5274;51.992;8.518;2023-05-07T04:57:45;57.28;;;52.40;;
10452;SDS011;5274;51.992;8.518;2023-05-07T05:00:11;57.65;;;52.85;;
10452;SDS011;5274;51.992;8.518;2023-05-07T05:02:41;56.67;;;51.60;;
10452;SDS011;5274;51.992;8.518;2023-05-07T05:05:07;59.80;;;54.65;;
10452;SDS011;5274;51.992;8.518;2023-05-07T05:07:33;58.65;;;53.60;;
10452;SDS011;5274;51.992;8.518;2023-05-07T05:09:59;53.92;;;49.10;;
10452;SDS011;5274;51.992;8.518;2023-05-07T05:12:25;54.47;;;49.20;;
10452;SDS011;5274;51.992;8.518;2023-05-07T05:14:51;58.45;;;53.13;;
10452;SDS011;5274;51.992;8.518;2023-05-07T05:17:17;58.50;;;53.25;;
10452;SDS011;5274;51.992;8.518;2023-05-07T05:19:43;59.53;;;54.42;;
10452;SDS011;5274;51.992;8.518;2023-05-07T05:22:09;57.42;;;52.63;;
10452;SDS011;5274;51.992;8.518;2023-05-07T05:24:35;60.75;;;55.33;;
10452;SDS011;5274;51.992;8.518;2023-05-07T05:27:01;59.70;;;54.60;;
10452;SDS011;5274;51.992;8.518;2023-05-07T05:29:27;58.75;;;53.67;;
10452;SDS011;5274;51.992;8.518;2023-05-07T05:31:53;58.38;;;53.13;;
10452;SDS011;5274;51.992;8.518;2023-05-07T05:34:20;57.72;;;52.85;;
10452;SDS011;5274;51.992;8.518;2023-05-07T05:36:47;59.58;;;54.38;;
10452;SDS011;5274;51.992;8.518;2023-05-07T05:39:13;59.20;;;54.08;;
10452;SDS011;5274;51.992;8.518;2023-05-07T05:41:39;59.47;;;54.40;;
10452;SDS011;5274;51.992;8.518;2023-05-07T05:44:05;59.85;;;54.85;;
10452;SDS011;5274;51.992;8.518;2023-05-07T05:46:31;55.17;;;50.50;;
10452;SDS011;5274;51.992;8.518;2023-05-07T05:48:57;54.97;;;50.00;;
10452;SDS011;5274;51.992;8.518;2023-05-07T05:51:23;57.63;;;52.70;;
10452;SDS011;5274;51.992;8.518;2023-05-07T05:53:48;51.80;;;47.22;;
10452;SDS011;5274;51.992;8.518;2023-05-07T05:56:15;56.45;;;51.30;;
10452;SDS011;5274;51.992;8.518;2023-05-07T05:58:41;50.72;;;46.35;;
10452;SDS011;5274;51.992;8.518;2023-05-07T06:01:07;60.20;;;55.10;;
10452;SDS011;5274;51.992;8.518;2023-05-07T06:03:33;60.05;;;54.83;;
10452;SDS011;5274;51.992;8.518;2023-05-07T06:05:59;59.75;;;54.83;;
10452;SDS011;5274;51.992;8.518;2023-05-07T06:08:25;61.67;;;56.58;;
10452;SDS011;5274;51.992;8.518;2023-05-07T06:10:51;59.50;;;54.53;;
10452;SDS011;5274;51.992;8.518;2023-05-07T06:13:17;59.95;;;54.95;;
10452;SDS011;5274;51.992;8.518;2023-05-07T06:15:43;57.53;;;52.35;;
10452;SDS011;5274;51.992;8.518;2023-05-07T06:18:09;57.13;;;52.25;;
10452;SDS011;5274;51.992;8.518;2023-05-07T06:20:35;57.38;;;52.63;;
10452;SDS011;5274;51.992;8.518;2023-05-07T06:23:01;57.92;;;53.00;;
10452;SDS011;5274;51.992;8.518;2023-05-07T06:25:27;56.35;;;51.58;;
10452;SDS011;5274;51.992;8.518;2023-05-07T06:27:53;59.03;;;54.10;;
10452;SDS011;5274;51.992;8.518;2023-05-07T06:30:19;55.80;;;51.13;;
10452;SDS011;5274;51.992;8.518;2023-05-07T06:32:45;58.97;;;54.22;;
10452;SDS011;5274;51.992;8.518;2023-05-07T06:35:11;51.83;;;47.45;;
10452;SDS011;5274;51.992;8.518;2023-05-07T06:37:36;55.00;;;50.67;;
10452;SDS011;5274;51.992;8.518;2023-05-07T06:40:05;54.35;;;49.97;;
10452;SDS011;5274;51.992;8.518;2023-05-07T06:42:31;58.25;;;53.45;;
10452;SDS011;5274;51.992;8.518;2023-05-07T06:44:57;57.58;;;52.95;;
10452;SDS011;5274;51.992;8.518;2023-05-07T06:47:23;58.22;;;53.38;;
10452;SDS011;5274;51.992;8.518;2023-05-07T06:49:49;57.78;;;53.15;;
10452;SDS011;5274;51.992;8.518;2023-05-07T06:52:15;57.47;;;52.92;;
10452;SDS011;5274;51.992;8.518;2023-05-07T06:54:41;55.85;;;51.53;;
10452;SDS011;5274;51.992;8.518;2023-05-07T06:57:07;57.10;;;52.70;;
10452;SDS011;5274;51.992;8.518;2023-05-07T06:59:33;51.28;;;47.35;;
10452;SDS011;5274;51.992;8.518;2023-05-07T07:01:59;56.38;;;51.58;;
10452;SDS011;5274;51.992;8.518;2023-05-07T07:04:25;53.20;;;49.50;;
10452;SDS011;5274;51.992;8.518;2023-05-07T07:06:54;52.60;;;48.72;;
10452;SDS011;5274;51.992;8.518;2023-05-07T07:09:21;51.35;;;47.33;;
10452;SDS011;5274;51.992;8.518;2023-05-07T07:11:47;52.40;;;48.63;;
10452;SDS011;5274;51.992;8.518;2023-05-07T07:14:13;56.08;;;51.92;;
10452;SDS011;5274;51.992;8.518;2023-05-07T07:16:39;52.33;;;48.40;;
10452;SDS011;5274;51.992;8.518;2023-05-07T07:19:05;52.80;;;48.65;;
10452;SDS011;5274;51.992;8.518;2023-05-07T07:21:31;54.67;;;50.13;;
10452;SDS011;5274;51.992;8.518;2023-05-07T07:23:57;58.15;;;53.50;;
10452;SDS011;5274;51.992;8.518;2023-05-07T07:26:23;57.17;;;52.85;;
10452;SDS011;5274;51.992;8.518;2023-05-07T07:28:49;58.67;;;54.22;;
10452;SDS011;5274;51.992;8.518;2023-05-07T07:31:15;57.42;;;53.15;;
10452;SDS011;5274;51.992;8.518;2023-05-07T07:33:41;57.90;;;53.80;;
10452;SDS011;5274;51.992;8.518;2023-05-07T07:36:07;55.88;;;51.67;;
10452;SDS011;5274;51.992;8.518;2023-05-07T07:38:33;55.30;;;51.42;;
10452;SDS011;5274;51.992;8.518;2023-05-07T07:41:00;56.22;;;51.90;;
10452;SDS011;5274;51.992;8.518;2023-05-07T07:43:26;53.33;;;49.53;;
10452;SDS011;5274;51.992;8.518;2023-05-07T07:45:52;54.63;;;50.60;;
10452;SDS011;5274;51.992;8.518;2023-05-07T07:48:18;54.13;;;50.13;;
10452;SDS011;5274;51.992;8.518;2023-05-07T07:50:44;54.42;;;50.47;;
10452;SDS011;5274;51.992;8.518;2023-05-07T07:53:10;57.13;;;53.13;;
10452;SDS011;5274;51.992;8.518;2023-05-07T07:55:39;57.30;;;53.03;;
10452;SDS011;5274;51.992;8.518;2023-05-07T07:58:05;56.72;;;52.83;;
10452;SDS011;5274;51.992;8.518;2023-05-07T08:00:31;57.08;;;53.15;;
10452;SDS011;5274;51.992;8.518;2023-05-07T08:02:57;56.22;;;52.15;;
10452;SDS011;5274;51.992;8.518;2023-05-07T08:05:24;53.75;;;49.97;;
10452;SDS011;5274;51.992;8.518;2023-05-07T08:07:50;54.47;;;50.80;;
10452;SDS011;5274;51.992;8.518;2023-05-07T08:10:18;48.35;;;44.97;;
10452;SDS011;5274;51.992;8.518;2023-05-07T08:12:47;52.55;;;48.95;;
10452;SDS011;5274;51.992;8.518;2023-05-07T08:15:13;52.08;;;48.50;;
10452;SDS011;5274;51.992;8.518;2023-05-07T08:17:39;53.78;;;50.13;;
10452;SDS011;5274;51.992;8.518;2023-05-07T08:20:06;54.50;;;50.60;;
10452;SDS011;5274;51.992;8.518;2023-05-07T08:22:32;52.38;;;48.90;;
10452;SDS011;5274;51.992;8.518;2023-05-07T08:24:58;52.97;;;49.35;;
10452;SDS011;5274;51.992;8.518;2023-05-07T08:27:25;53.83;;;50.17;;
10452;SDS011;5274;51.992;8.518;2023-05-07T08:29:51;50.88;;;47.47;;
10452;SDS011;5274;51.992;8.518;2023-05-07T08:32:17;50.25;;;46.85;;
10452;SDS011;5274;51.992;8.518;2023-05-07T08:34:42;51.08;;;47.58;;
10452;SDS011;5274;51.992;8.518;2023-05-07T08:37:08;50.95;;;47.55;;
10452;SDS011;5274;51.992;8.518;2023-05-07T08:39:34;51.33;;;47.83;;
10452;SDS011;5274;51.992;8.518;2023-05-07T08:42:00;49.47;;;46.10;;
10452;SDS011;5274;51.992;8.518;2023-05-07T08:44:33;50.50;;;47.05;;
10452;SDS011;5274;51.992;8.518;2023-05-07T08:47:02;51.88;;;48.28;;
10452;SDS011;5274;51.992;8.518;2023-05-07T08:49:28;51.45;;;48.05;;
10452;SDS011;5274;51.992;8.518;2023-05-07T08:51:54;55.03;;;51.33;;
10452;SDS011;5274;51.992;8.518;2023-05-07T08:54:20;55.28;;;51.20;;
10452;SDS011;5274;51.992;8.518;2023-05-07T08:56:47;54.63;;;50.72;;
10452;SDS011;5274;51.992;8.518;2023-05-07T08:59:13;50.15;;;46.60;;
10452;SDS011;5274;51.992;8.518;2023-05-07T09:01:39;50.47;;;47.08;;
10452;SDS011;5274;51.992;8.518;2023-05-07T09:04:05;49.28;;;45.80;;
10452;SDS011;5274;51.992;8.518;2023-05-07T09:06:32;51.15;;;47.55;;
10452;SDS011;5274;51.992;8.518;2023-05-07T09:08:57;51.20;;;47.70;;
10452;SDS011;5274;51.992;8.518;2023-05-07T09:11:26;49.13;;;45.72;;
10452;SDS011;5274;51.992;8.518;2023-05-07T09:13:55;53.95;;;50.25;;
10452;SDS011;5274;51.992;8.518;2023-05-07T09:16:23;53.75;;;50.08;;
10452;SDS011;5274;51.992;8.518;2023-05-07T09:18:52;54.55;;;50.75;;
10452;SDS011;5274;51.992;8.518;2023-05-07T09:21:19;55.50;;;51.72;;
10452;SDS011;5274;51.992;8.518;2023-05-07T09:23:45;54.50;;;50.80;;
10452;SDS011;5274;51.992;8.518;2023-05-07T09:26:11;53.53;;;49.92;;
10452;SDS011;5274;51.992;8.518;2023-05-07T09:28:38;54.55;;;50.83;;
10452;SDS011;5274;51.992;8.518;2023-05-07T09:31:05;52.90;;;49.35;;
10452;SDS011;5274;51.992;8.518;2023-05-07T09:33:31;52.50;;;49.08;;
10452;SDS011;5274;51.992;8.518;2023-05-07T09:35:57;54.35;;;50.58;;
10452;SDS011;5274;51.992;8.518;2023-05-07T09:38:23;53.28;;;49.75;;
10452;SDS011;5274;51.992;8.518;2023-05-07T09:41:01;53.55;;;50.05;;
10452;SDS011;5274;51.992;8.518;2023-05-07T09:43:31;54.80;;;51.13;;
10452;SDS011;5274;51.992;8.518;2023-05-07T09:45:58;54.70;;;51.13;;
10452;SDS011;5274;51.992;8.518;2023-05-07T09:48:24;52.88;;;49.17;;
10452;SDS011;5274;51.992;8.518;2023-05-07T09:50:51;54.22;;;50.63;;
10452;SDS011;5274;51.992;8.518;2023-05-07T09:53:23;54.22;;;50.63;;
10452;SDS011;5274;51.992;8.518;2023-05-07T09:55:49;54.05;;;50.55;;
10452;SDS011;5274;51.992;8.518;2023-05-07T09:58:16;54.78;;;51.08;;
10452;SDS011;5274;51.992;8.518;2023-05-07T10:00:43;54.22;;;50.42;;
10452;SDS011;5274;51.992;8.518;2023-05-07T10:03:10;53.10;;;49.58;;
10452;SDS011;5274;51.992;8.518;2023-05-07T10:05:36;53.75;;;50.15;;
10452;SDS011;5274;51.992;8.518;2023-05-07T10:08:02;54.30;;;50.67;;
10452;SDS011;5274;51.992;8.518;2023-05-07T10:10:29;53.67;;;50.17;;
10452;SDS011;5274;51.992;8.518;2023-05-07T10:12:55;51.45;;;47.92;;
10452;SDS011;5274;51.992;8.518;2023-05-07T10:15:21;47.22;;;44.25;;
10452;SDS011;5274;51.992;8.518;2023-05-07T10:17:47;54.42;;;50.72;;
10452;SDS011;5274;51.992;8.518;2023-05-07T10:20:13;55.25;;;51.58;;
10452;SDS011;5274;51.992;8.518;2023-05-07T10:22:47;54.88;;;51.05;;
10452;SDS011;5274;51.992;8.518;2023-05-07T10:25:16;54.80;;;51.22;;
10452;SDS011;5274;51.992;8.518;2023-05-07T10:27:43;52.10;;;48.70;;
10452;SDS011;5274;51.992;8.518;2023-05-07T10:30:20;54.08;;;50.58;;
10452;SDS011;5274;51.992;8.518;2023-05-07T10:32:50;53.65;;;50.28;;
10452;SDS011;5274;51.992;8.518;2023-05-07T10:35:21;52.60;;;49.20;;
10452;SDS011;5274;51.992;8.518;2023-05-07T10:37:47;57.20;;;53.40;;
10452;SDS011;5274;51.992;8.518;2023-05-07T10:40:13;56.65;;;52.78;;
10452;SDS011;5274;51.992;8.518;2023-05-07T10:42:52;56.13;;;52.42;;
10452;SDS011;5274;51.992;8.518;2023-05-07T10:45:19;56.33;;;52.63;;
10452;SDS011;5274;51.992;8.518;2023-05-07T10:50:29;54.85;;;51.20;;
10452;SDS011;5274;51.992;8.518;2023-05-07T10:58:41;54.20;;;50.38;;
10452;SDS011;5274;51.992;8.518;2023-05-07T11:01:07;57.05;;;53.15;;
10452;SDS011;5274;51.992;8.518;2023-05-07T11:03:33;55.83;;;52.08;;
10452;SDS011;5274;51.992;8.518;2023-05-07T11:06:09;57.17;;;53.30;;
10452;SDS011;5274;51.992;8.518;2023-05-07T11:11:36;54.97;;;51.28;;
10452;SDS011;5274;51.992;8.518;2023-05-07T11:14:06;55.10;;;51.15;;
10452;SDS011;5274;51.992;8.518;2023-05-07T11:16:32;55.72;;;52.13;;
10452;SDS011;5274;51.992;8.518;2023-05-07T11:19:01;52.90;;;49.50;;
10452;SDS011;5274;51.992;8.518;2023-05-07T11:21:42;51.42;;;48.13;;
10452;SDS011;5274;51.992;8.518;2023-05-07T11:24:09;48.42;;;44.92;;
10452;SDS011;5274;51.992;8.518;2023-05-07T11:26:50;51.38;;;47.95;;
10452;SDS011;5274;51.992;8.518;2023-05-07T11:29:17;53.45;;;49.85;;
10452;SDS011;5274;51.992;8.518;2023-05-07T11:31:48;53.17;;;49.65;;
10452;SDS011;5274;51.992;8.518;2023-05-07T11:34:14;53.92;;;50.22;;
10452;SDS011;5274;51.992;8.518;2023-05-07T11:36:41;54.55;;;50.95;;
10452;SDS011;5274;51.992;8.518;2023-05-07T11:41:50;51.58;;;48.38;;
10452;SDS011;5274;51.992;8.518;2023-05-07T11:44:16;52.50;;;48.95;;
10452;SDS011;5274;51.992;8.518;2023-05-07T11:46:45;51.65;;;48.25;;
10452;SDS011;5274;51.992;8.518;2023-05-07T11:49:11;51.28;;;47.53;;
10452;SDS011;5274;51.992;8.518;2023-05-07T11:51:37;51.58;;;48.17;;
10452;SDS011;5274;51.992;8.518;2023-05-07T11:54:05;54.83;;;51.13;;
10452;SDS011;5274;51.992;8.518;2023-05-07T11:56:36;54.88;;;51.17;;
10452;SDS011;5274;51.992;8.518;2023-05-07T11:59:02;53.80;;;50.22;;
10452;SDS011;5274;51.992;8.518;2023-05-07T12:01:28;54.90;;;51.35;;
10452;SDS011;5274;51.992;8.518;2023-05-07T12:03:54;54.25;;;50.88;;
10452;SDS011;5274;51.992;8.518;2023-05-07T12:06:20;50.65;;;47.45;;
10452;SDS011;5274;51.992;8.518;2023-05-07T12:08:46;54.28;;;50.85;;
10452;SDS011;5274;51.992;8.518;2023-05-07T12:11:13;55.45;;;51.75;;
10452;SDS011;5274;51.992;8.518;2023-05-07T12:13:40;53.33;;;49.83;;
10452;SDS011;5274;51.992;8.518;2023-05-07T12:16:06;53.60;;;50.20;;
10452;SDS011;5274;51.992;8.518;2023-05-07T12:18:33;54.17;;;50.60;;
10452;SDS011;5274;51.992;8.518;2023-05-07T12:20:59;52.92;;;49.53;;
10452;SDS011;5274;51.992;8.518;2023-05-07T12:23:25;52.72;;;49.38;;
10452;SDS011;5274;51.992;8.518;2023-05-07T12:25:52;52.90;;;49.55;;
10452;SDS011;5274;51.992;8.518;2023-05-07T12:28:18;53.35;;;49.85;;
10452;SDS011;5274;51.992;8.518;2023-05-07T12:30:45;55.80;;;52.20;;
10452;SDS011;5274;51.992;8.518;2023-05-07T12:33:11;54.10;;;50.63;;
10452;SDS011;5274;51.992;8.518;2023-05-07T12:35:43;54.67;;;51.17;;
10452;SDS011;5274;51.992;8.518;2023-05-07T12:38:13;53.38;;;49.92;;
10452;SDS011;5274;51.992;8.518;2023-05-07T12:40:43;52.15;;;48.88;;
10452;SDS011;5274;51.992;8.518;2023-05-07T12:43:19;52.13;;;48.83;;
10452;SDS011;5274;51.992;8.518;2023-05-07T12:45:46;51.20;;;48.03;;
10452;SDS011;5274;51.992;8.518;2023-05-07T12:48:12;54.42;;;50.75;;
10452;SDS011;5274;51.992;8.518;2023-05-07T12:50:38;54.80;;;51.20;;
10452;SDS011;5274;51.992;8.518;2023-05-07T12:53:05;54.42;;;51.03;;
10452;SDS011;5274;51.992;8.518;2023-05-07T12:55:32;54.60;;;51.20;;
10452;SDS011;5274;51.992;8.518;2023-05-07T12:58:05;55.67;;;52.17;;
10452;SDS011;5274;51.992;8.518;2023-05-07T13:00:37;55.83;;;52.25;;
10452;SDS011;5274;51.992;8.518;2023-05-07T13:03:04;55.65;;;52.08;;
10452;SDS011;5274;51.992;8.518;2023-05-07T13:05:30;54.28;;;50.97;;
10452;SDS011;5274;51.992;8.518;2023-05-07T13:07:56;53.90;;;50.40;;
10452;SDS011;5274;51.992;8.518;2023-05-07T13:10:23;55.45;;;51.88;;
10452;SDS011;5274;51.992;8.518;2023-05-07T13:12:49;57.42;;;53.80;;
10452;SDS011;5274;51.992;8.518;2023-05-07T13:15:15;56.05;;;52.58;;
10452;SDS011;5274;51.992;8.518;2023-05-07T13:17:42;57.05;;;53.33;;
10452;SDS011;5274;51.992;8.518;2023-05-07T13:20:11;56.28;;;52.78;;
10452;SDS011;5274;51.992;8.518;2023-05-07T13:22:40;55.38;;;51.88;;
10452;SDS011;5274;51.992;8.518;2023-05-07T13:25:06;56.75;;;53.15;;
10452;SDS011;5274;51.992;8.518;2023-05-07T13:27:32;56.67;;;53.17;;
10452;SDS011;5274;51.992;8.518;2023-05-07T13:30:01;56.33;;;52.83;;
10452;SDS011;5274;51.992;8.518;2023-05-07T13:32:27;58.13;;;54.53;;
10452;SDS011;5274;51.992;8.518;2023-05-07T13:34:53;56.80;;;53.20;;
10452;SDS011;5274;51.992;8.518;2023-05-07T13:37:19;56.03;;;52.53;;
10452;SDS011;5274;51.992;8.518;2023-05-07T13:39:45;56.08;;;52.45;;
10452;SDS011;5274;51.992;8.518;2023-05-07T13:42:11;55.30;;;51.70;;
10452;SDS011;5274;51.992;8.518;2023-05-07T13:44:37;53.30;;;49.75;;
10452;SDS011;5274;51.992;8.518;2023-05-07T13:47:03;55.50;;;51.88;;
10452;SDS011;5274;51.992;8.518;2023-05-07T13:49:29;55.15;;;51.55;;
10452;SDS011;5274;51.992;8.518;2023-05-07T13:51:55;56.38;;;52.80;;
10452;SDS011;5274;51.992;8.518;2023-05-07T13:54:21;56.08;;;52.55;;
10452;SDS011;5274;51.992;8.518;2023-05-07T13:56:47;57.33;;;53.63;;
10452;SDS011;5274;51.992;8.518;2023-05-07T13:59:13;57.00;;;53.30;;
10452;SDS011;5274;51.992;8.518;2023-05-07T14:01:39;56.17;;;52.47;;
10452;SDS011;5274;51.992;8.518;2023-05-07T14:04:05;56.40;;;52.80;;
10452;SDS011;5274;51.992;8.518;2023-05-07T14:06:31;56.78;;;53.08;;
10452;SDS011;5274;51.992;8.518;2023-05-07T14:08:57;55.88;;;52.22;;
10452;SDS011;5274;51.992;8.518;2023-05-07T14:11:23;54.35;;;50.95;;
10452;SDS011;5274;51.992;8.518;2023-05-07T14:13:49;54.03;;;50.60;;
10452;SDS011;5274;51.992;8.518;2023-05-07T14:16:15;53.65;;;50.25;;
10452;SDS011;5274;51.992;8.518;2023-05-07T14:18:40;54.88;;;51.33;;
10452;SDS011;5274;51.992;8.518;2023-05-07T14:21:06;56.35;;;52.55;;
10452;SDS011;5274;51.992;8.518;2023-05-07T14:23:34;56.67;;;52.97;;
10452;SDS011;5274;51.992;8.518;2023-05-07T14:26:00;55.13;;;51.38;;
10452;SDS011;5274;51.992;8.518;2023-05-07T14:28:26;59.22;;;55.22;;
10452;SDS011;5274;51.992;8.518;2023-05-07T14:30:52;60.20;;;56.20;;
10452;SDS011;5274;51.992;8.518;2023-05-07T14:33:18;56.08;;;52.28;;
10452;SDS011;5274;51.992;8.518;2023-05-07T14:35:44;56.05;;;52.35;;
10452;SDS011;5274;51.992;8.518;2023-05-07T14:38:13;56.88;;;53.13;;
10452;SDS011;5274;51.992;8.518;2023-05-07T14:40:39;57.60;;;53.90;;
10452;SDS011;5274;51.992;8.518;2023-05-07T14:43:05;58.30;;;54.30;;